createdAt,value
2023-05-19T00:03:17.995Z,101081.81
2023-05-19T00:10:37.086Z,101072.22
2023-05-19T00:17:56.926Z,101072.34
2023-05-19T00:25:15.297Z,101072.69
2023-05-19T00:32:33.703Z,101069.97
2023-05-19T00:39:53.702Z,101068.78
2023-05-19T00:47:12.436Z,101063.19
2023-05-19T00:54:31.200Z,101057.28
2023-05-19T01:01:51.276Z,101070.69
2023-05-19T01:09:10.515Z,101061.41
2023-05-19T01:16:32.477Z,101057.94
2023-05-19T01:23:58.987Z,101069.72
2023-05-19T01:31:19.374Z,101072.81
2023-05-19T01:38:40.391Z,101069.41
2023-05-19T01:45:59.929Z,101067.59
2023-05-19T01:53:19.975Z,101077.97
2023-05-19T02:00:47.767Z,101063.75
2023-05-19T02:08:14.011Z,101056.47
2023-05-19T02:15:38.832Z,101059.91
2023-05-19T02:22:57.437Z,101059.59
2023-05-19T02:30:15.878Z,101060.22
2023-05-19T02:37:36.137Z,101053.44
2023-05-19T02:44:55.806Z,101037.56
2023-05-19T02:52:14.098Z,101047.22
2023-05-19T02:59:33.855Z,101042.19
2023-05-19T03:06:52.090Z,101034.56
2023-05-19T03:14:10.732Z,101042.63
2023-05-19T03:21:32.263Z,101032.56
2023-05-19T03:28:50.968Z,101035.13
2023-05-19T03:36:12.745Z,101034.69
2023-05-19T03:43:33.560Z,101034.94
2023-05-19T03:50:56.898Z,101044.28
2023-05-19T03:58:18.084Z,101047.78
2023-05-19T04:05:38.210Z,101045.97
2023-05-19T04:12:57.150Z,101046.94
2023-05-19T04:20:17.650Z,101057.53
2023-05-19T04:27:39.041Z,101057.38
2023-05-19T04:34:59.105Z,101061.97
2023-05-19T04:42:20.972Z,101059.88
2023-05-19T04:49:41.928Z,101046.81
2023-05-19T04:57:00.488Z,101058.00
2023-05-19T05:04:21.790Z,101077.97
2023-05-19T05:11:44.678Z,101072.19
2023-05-19T05:19:04.371Z,101071.34
2023-05-19T05:26:23.779Z,101067.75
2023-05-19T05:33:48.291Z,101077.78
2023-05-19T05:41:09.699Z,101077.69
2023-05-19T05:48:30.292Z,101068.34
2023-05-19T05:55:51.930Z,101067.38
2023-05-19T06:03:14.784Z,101070.25
2023-05-19T06:10:33.746Z,101072.75
2023-05-19T06:17:54.952Z,101091.47
2023-05-19T06:25:14.113Z,101101.59
2023-05-19T06:32:33.632Z,101093.97
2023-05-19T06:39:54.428Z,101096.50
2023-05-19T06:47:13.455Z,101102.84
2023-05-19T06:54:32.000Z,101108.66
2023-05-19T07:01:53.234Z,101101.63
2023-05-19T07:09:11.767Z,101106.31
2023-05-19T07:16:31.711Z,101099.53
2023-05-19T07:23:52.531Z,101102.81
2023-05-19T07:31:11.697Z,101109.66
2023-05-19T07:38:30.302Z,101108.53
2023-05-19T07:45:50.313Z,101111.75
2023-05-19T07:53:08.709Z,101115.06
2023-05-19T08:00:27.433Z,101120.22
2023-05-19T08:07:47.541Z,101114.34
2023-05-19T08:15:06.639Z,101117.53
2023-05-19T08:22:25.072Z,101110.53
2023-05-19T08:29:44.994Z,101109.41
2023-05-19T08:37:03.376Z,101103.00
2023-05-19T08:44:21.976Z,101103.34
2023-05-19T08:51:48.731Z,101104.84
2023-05-19T08:59:08.421Z,101105.16
2023-05-19T09:06:27.174Z,101101.38
2023-05-19T09:13:48.875Z,101093.63
2023-05-19T09:21:07.767Z,101103.50
2023-05-19T09:28:27.515Z,101094.91
2023-05-19T09:35:50.106Z,101099.34
2023-05-19T09:43:10.545Z,101087.00
2023-05-19T09:50:30.291Z,101071.72
2023-05-19T09:57:50.389Z,101077.75
2023-05-19T10:05:09.381Z,101075.78
2023-05-19T10:12:28.220Z,101060.19
2023-05-19T10:19:49.714Z,101054.91
2023-05-19T10:27:12.166Z,101057.78
2023-05-19T10:35:01.336Z,101063.66
2023-05-19T10:42:29.718Z,101053.16
2023-05-19T10:49:48.330Z,101055.25
2023-05-19T10:57:08.490Z,101054.03
2023-05-19T11:04:41.503Z,101067.03
2023-05-19T11:12:04.990Z,101058.25
2023-05-19T11:19:28.494Z,101056.00
2023-05-19T11:26:47.876Z,101056.06
2023-05-19T11:34:07.700Z,101057.81
2023-05-19T11:41:28.600Z,101050.81
2023-05-19T11:48:50.785Z,101043.47
2023-05-19T11:56:09.147Z,101058.06
2023-05-19T12:03:30.009Z,101054.75
2023-05-19T12:10:50.520Z,101056.66
2023-05-19T12:18:09.077Z,101057.38
2023-05-19T12:25:29.325Z,101058.63
2023-05-19T12:32:49.397Z,101058.31
2023-05-19T12:40:09.597Z,101043.63
2023-05-19T12:47:34.966Z,101053.13
2023-05-19T12:55:00.588Z,101048.88
2023-05-19T13:02:19.555Z,101050.88
2023-05-19T13:09:39.792Z,101041.28
2023-05-19T13:16:58.426Z,101051.91
2023-05-19T13:24:17.281Z,101046.34
2023-05-19T13:31:37.824Z,101049.25
2023-05-19T13:38:56.412Z,101031.28
2023-05-19T13:46:15.050Z,101049.53
2023-05-19T13:53:35.043Z,101044.44
2023-05-19T14:00:55.848Z,101046.66
2023-05-19T14:08:14.552Z,101038.47
2023-05-19T14:15:38.438Z,101044.69
2023-05-19T14:22:57.777Z,101039.97
2023-05-19T14:30:17.746Z,101043.91
2023-05-19T14:37:39.173Z,101035.84
2023-05-19T14:44:57.849Z,101031.31
2023-05-19T14:52:18.751Z,101031.84
2023-05-19T14:59:40.208Z,101027.63
2023-05-19T15:14:24.588Z,101031.94
2023-05-19T15:21:45.874Z,101031.25
2023-05-19T15:29:04.474Z,101023.78
2023-05-19T15:36:22.992Z,101021.97
2023-05-19T15:43:42.920Z,101009.63
2023-05-19T15:51:02.124Z,101006.31
2023-05-19T15:58:20.716Z,101008.69
2023-05-19T16:05:40.776Z,101004.59
2023-05-19T16:12:59.239Z,101005.53
2023-05-19T16:20:17.756Z,101010.66
2023-05-19T16:27:38.739Z,101014.50
2023-05-19T16:34:57.282Z,101006.34
2023-05-19T16:42:15.907Z,101006.97
2023-05-19T16:49:36.040Z,101015.56
2023-05-19T16:56:55.067Z,101003.19
2023-05-19T17:04:13.898Z,101005.91
2023-05-19T17:11:33.953Z,101003.41
2023-05-19T17:18:52.730Z,101006.97
2023-05-19T17:26:11.142Z,101009.34
2023-05-19T17:33:31.042Z,101015.38
2023-05-19T17:40:49.785Z,101016.19
2023-05-19T17:48:11.861Z,101025.81
2023-05-19T17:55:34.378Z,101025.88
2023-05-19T18:02:54.025Z,101028.06
2023-05-19T18:10:13.934Z,101014.63
2023-05-19T18:17:34.691Z,101006.34
2023-05-19T18:24:53.449Z,101015.47
2023-05-19T18:32:17.660Z,101013.81
2023-05-19T18:39:39.125Z,101004.06
2023-05-19T18:46:58.017Z,101009.81
2023-05-19T18:54:17.759Z,101018.50
2023-05-19T19:01:38.066Z,101026.94
2023-05-19T19:08:56.724Z,101035.78
2023-05-19T19:16:15.331Z,101034.97
2023-05-19T19:23:35.448Z,101049.97
2023-05-19T19:30:53.987Z,101051.31
2023-05-19T19:38:12.747Z,101037.97
2023-05-19T19:45:34.932Z,101042.78
2023-05-19T19:52:53.356Z,101046.25
2023-05-19T20:00:13.777Z,101051.00
2023-05-19T20:07:34.046Z,101050.53
2023-05-19T20:14:54.826Z,101048.88
2023-05-19T20:22:13.175Z,101048.06
2023-05-19T20:29:33.602Z,101056.19
2023-05-19T20:36:51.934Z,101058.53
2023-05-19T20:44:10.693Z,101050.75
2023-05-19T20:51:30.407Z,101051.19
2023-05-19T20:58:56.490Z,101040.19
2023-05-19T21:06:15.100Z,101049.47
2023-05-19T21:13:39.255Z,101042.78
2023-05-19T21:20:57.931Z,101042.63
2023-05-19T21:28:16.292Z,101047.91
2023-05-19T21:35:36.179Z,101043.44
2023-05-19T21:42:54.608Z,101035.03
2023-05-19T21:50:15.807Z,101029.03
2023-05-19T21:57:35.745Z,101037.63
2023-05-19T22:04:54.158Z,101029.47
2023-05-19T22:12:12.391Z,101020.34
2023-05-19T22:19:32.305Z,101035.06
2023-05-19T22:26:51.057Z,101013.00
2023-05-19T22:34:12.798Z,101008.00
2023-05-19T22:41:34.181Z,101003.13
2023-05-19T22:48:52.622Z,100998.75
2023-05-19T22:56:11.175Z,101007.59
2023-05-19T23:03:31.091Z,101010.13
2023-05-19T23:10:49.600Z,101016.91
2023-05-19T23:18:08.816Z,101011.41
2023-05-19T23:25:29.050Z,101007.66
2023-05-19T23:32:47.894Z,101014.06
2023-05-19T23:40:09.577Z,101006.13
2023-05-19T23:47:29.615Z,100995.59
2023-05-19T23:54:48.042Z,100992.81
